sensor_id;sensor_type;location;lat;lon;timestamp;pressure;altitude;pressure_sealevel;temperature;humidity
76195;BME280;64964;48.694;21.206;2023-02-11T00:00:13;99787.56;;;-3.98;60.24
76195;BME280;64964;48.694;21.206;2023-02-11T00:02:38;99785.91;;;-4.01;60.89
76195;BME280;64964;48.694;21.206;2023-02-11T00:05:05;99779.97;;;-4.04;60.91
76195;BME280;64964;48.694;21.206;2023-02-11T00:07:31;99777.38;;;-4.04;61.25
76195;BME280;64964;48.694;21.206;2023-02-11T00:09:57;99769.66;;;-4.06;60.72
76195;BME280;64964;48.694;21.206;2023-02-11T00:12:23;99778.28;;;-4.05;60.69
76195;BME280;64964;48.694;21.206;2023-02-11T00:14:49;99772.22;;;-4.06;61.53
76195;BME280;64964;48.694;21.206;2023-02-11T00:17:14;99769.75;;;-4.10;61.52
76195;BME280;64964;48.694;21.206;2023-02-11T00:19:40;99769.84;;;-4.13;60.94
76195;BME280;64964;48.694;21.206;2023-02-11T00:22:05;99761.31;;;-4.18;60.69
76195;BME280;64964;48.694;21.206;2023-02-11T00:24:31;99758.00;;;-4.22;61.38
76195;BME280;64964;48.694;21.206;2023-02-11T00:26:56;99766.63;;;-4.24;61.72
76195;BME280;64964;48.694;21.206;2023-02-11T00:29:22;99769.25;;;-4.26;61.67
76195;BME280;64964;48.694;21.206;2023-02-11T00:31:47;99771.84;;;-4.26;61.53
76195;BME280;64964;48.694;21.206;2023-02-11T00:34:13;99773.56;;;-4.27;61.96
76195;BME280;64964;48.694;21.206;2023-02-11T00:36:38;99775.28;;;-4.27;61.75
76195;BME280;64964;48.694;21.206;2023-02-11T00:39:04;99774.44;;;-4.28;61.29
76195;BME280;64964;48.694;21.206;2023-02-11T00:41:29;99769.31;;;-4.29;61.38
76195;BME280;64964;48.694;21.206;2023-02-11T00:43:55;99766.75;;;-4.29;61.42
76195;BME280;64964;48.694;21.206;2023-02-11T00:46:21;99770.22;;;-4.32;60.81
76195;BME280;64964;48.694;21.206;2023-02-11T00:48:47;99761.69;;;-4.34;61.20
76195;BME280;64964;48.694;21.206;2023-02-11T00:51:12;99781.50;;;-4.34;61.12
76195;BME280;64964;48.694;21.206;2023-02-11T00:53:38;99767.84;;;-4.41;61.04
76195;BME280;64964;48.694;21.206;2023-02-11T00:56:03;99761.84;;;-4.41;61.17
76195;BME280;64964;48.694;21.206;2023-02-11T00:58:29;99763.69;;;-4.46;60.93
76195;BME280;64964;48.694;21.206;2023-02-11T01:00:54;99763.72;;;-4.49;61.52
76195;BME280;64964;48.694;21.206;2023-02-11T01:03:20;99762.94;;;-4.53;61.27
76195;BME280;64964;48.694;21.206;2023-02-11T01:05:45;99765.56;;;-4.56;61.98
76195;BME280;64964;48.694;21.206;2023-02-11T01:08:11;99763.88;;;-4.57;61.82
76195;BME280;64964;48.694;21.206;2023-02-11T01:10:37;99756.19;;;-4.60;61.63
76195;BME280;64964;48.694;21.206;2023-02-11T01:13:02;99749.38;;;-4.63;61.56
76195;BME280;64964;48.694;21.206;2023-02-11T01:15:28;99738.22;;;-4.65;62.10
76195;BME280;64964;48.694;21.206;2023-02-11T01:17:54;99735.69;;;-4.66;61.83
76195;BME280;64964;48.694;21.206;2023-02-11T01:20:22;99734.84;;;-4.68;62.13
76195;BME280;64964;48.694;21.206;2023-02-11T01:22:48;99740.03;;;-4.68;62.17
76195;BME280;64964;48.694;21.206;2023-02-11T01:25:13;99727.22;;;-4.71;62.54
76195;BME280;64964;48.694;21.206;2023-02-11T01:27:39;99722.91;;;-4.72;62.24
76195;BME280;64964;48.694;21.206;2023-02-11T01:30:06;99714.38;;;-4.74;62.13
76195;BME280;64964;48.694;21.206;2023-02-11T01:32:33;99712.69;;;-4.77;62.14
76195;BME280;64964;48.694;21.206;2023-02-11T01:34:59;99705.88;;;-4.81;63.45
76195;BME280;64964;48.694;21.206;2023-02-11T01:37:24;99700.66;;;-4.78;62.47
76195;BME280;64964;48.694;21.206;2023-02-11T01:39:50;99690.41;;;-4.80;62.57
76195;BME280;64964;48.694;21.206;2023-02-11T01:42:18;99699.88;;;-4.82;63.26
76195;BME280;64964;48.694;21.206;2023-02-11T01:44:44;99694.72;;;-4.80;63.53
76195;BME280;64964;48.694;21.206;2023-02-11T01:47:09;99692.09;;;-4.79;63.06
76195;BME280;64964;48.694;21.206;2023-02-11T01:49:38;99694.63;;;-4.76;62.61
76195;BME280;64964;48.694;21.206;2023-02-11T01:54:43;99705.84;;;-4.78;62.31
76195;BME280;64964;48.694;21.206;2023-02-11T01:57:31;99688.66;;;-4.79;62.37
76195;BME280;64964;48.694;21.206;2023-02-11T02:00:34;99696.50;;;-4.84;62.30
76195;BME280;64964;48.694;21.206;2023-02-11T02:10:54;99691.56;;;-4.94;62.71
76195;BME280;64964;48.694;21.206;2023-02-11T02:13:21;99688.97;;;-4.93;62.79
76195;BME280;64964;48.694;21.206;2023-02-11T02:15:58;99692.41;;;-4.94;63.41
76195;BME280;64964;48.694;21.206;2023-02-11T02:18:49;99686.38;;;-4.94;63.19
76195;BME280;64964;48.694;21.206;2023-02-11T02:35:14;99658.25;;;-5.05;64.10
76195;BME280;64964;48.694;21.206;2023-02-11T02:37:55;99653.94;;;-5.05;64.23
76195;BME280;64964;48.694;21.206;2023-02-11T02:40:29;99653.06;;;-5.04;64.08
76195;BME280;64964;48.694;21.206;2023-02-11T02:42:57;99652.22;;;-5.04;64.11
76195;BME280;64964;48.694;21.206;2023-02-11T02:45:23;99644.44;;;-5.03;64.78
76195;BME280;64964;48.694;21.206;2023-02-11T02:47:48;99647.81;;;-4.99;65.12
76195;BME280;64964;48.694;21.206;2023-02-11T02:50:15;99645.97;;;-4.94;63.59
76195;BME280;64964;48.694;21.206;2023-02-11T03:00:42;99642.50;;;-4.91;63.51
76195;BME280;64964;48.694;21.206;2023-02-11T03:05:53;99639.19;;;-4.98;65.38
76195;BME280;64964;48.694;21.206;2023-02-11T03:08:33;99635.75;;;-4.97;65.28
76195;BME280;64964;48.694;21.206;2023-02-11T03:11:03;99633.13;;;-4.95;64.57
76195;BME280;64964;48.694;21.206;2023-02-11T03:13:33;99627.13;;;-4.96;64.05
76195;BME280;64964;48.694;21.206;2023-02-11T03:16:24;99614.22;;;-4.96;64.02
76195;BME280;64964;48.694;21.206;2023-02-11T03:18:52;99608.13;;;-4.92;63.93
76195;BME280;64964;48.694;21.206;2023-02-11T03:21:21;99608.13;;;-4.92;64.03
76195;BME280;64964;48.694;21.206;2023-02-11T03:24:00;99600.38;;;-4.92;65.63
76195;BME280;64964;48.694;21.206;2023-02-11T03:26:30;99589.13;;;-4.89;65.10
76195;BME280;64964;48.694;21.206;2023-02-11T03:32:18;99585.59;;;-4.84;65.56
76195;BME280;64964;48.694;21.206;2023-02-11T03:37:25;99581.16;;;-4.79;65.75
76195;BME280;64964;48.694;21.206;2023-02-11T03:39:56;99579.44;;;-4.78;65.45
76195;BME280;64964;48.694;21.206;2023-02-11T03:42:26;99573.38;;;-4.77;65.60
76195;BME280;64964;48.694;21.206;2023-02-11T03:44:58;99562.94;;;-4.72;65.09
76195;BME280;64964;48.694;21.206;2023-02-11T03:47:27;99562.88;;;-4.69;65.02
76195;BME280;64964;48.694;21.206;2023-02-11T03:49:55;99566.31;;;-4.69;65.41
76195;BME280;64964;48.694;21.206;2023-02-11T03:52:23;99577.47;;;-4.67;64.35
76195;BME280;64964;48.694;21.206;2023-02-11T03:54:53;99587.84;;;-4.70;65.07
76195;BME280;64964;48.694;21.206;2023-02-11T03:57:19;99593.91;;;-4.71;64.18
76195;BME280;64964;48.694;21.206;2023-02-11T03:59:55;99586.28;;;-4.77;65.00
76195;BME280;64964;48.694;21.206;2023-02-11T04:02:26;99584.66;;;-4.81;64.68
76195;BME280;64964;48.694;21.206;2023-02-11T04:04:53;99597.69;;;-4.87;65.25
76195;BME280;64964;48.694;21.206;2023-02-11T04:07:19;99607.19;;;-4.89;64.94
76195;BME280;64964;48.694;21.206;2023-02-11T04:09:44;99603.81;;;-4.91;65.10
76195;BME280;64964;48.694;21.206;2023-02-11T04:12:09;99609.88;;;-4.94;64.14
76195;BME280;64964;48.694;21.206;2023-02-11T04:14:35;99605.66;;;-4.98;64.52
76195;BME280;64964;48.694;21.206;2023-02-11T04:17:01;99603.16;;;-5.01;64.38
76195;BME280;64964;48.694;21.206;2023-02-11T04:19:26;99595.50;;;-5.04;63.89
76195;BME280;64964;48.694;21.206;2023-02-11T04:21:52;99592.16;;;-5.09;64.98
76195;BME280;64964;48.694;21.206;2023-02-11T04:24:17;99587.91;;;-5.12;65.22
76195;BME280;64964;48.694;21.206;2023-02-11T04:26:42;99595.69;;;-5.13;64.86
76195;BME280;64964;48.694;21.206;2023-02-11T04:29:08;99595.69;;;-5.15;64.90
76195;BME280;64964;48.694;21.206;2023-02-11T04:31:33;99590.63;;;-5.18;65.51
76195;BME280;64964;48.694;21.206;2023-02-11T04:33:58;99584.66;;;-5.20;65.19
76195;BME280;64964;48.694;21.206;2023-02-11T04:36:24;99581.28;;;-5.23;65.21
76195;BME280;64964;48.694;21.206;2023-02-11T04:38:49;99579.66;;;-5.28;65.24
76195;BME280;64964;48.694;21.206;2023-02-11T04:41:14;99568.53;;;-5.31;65.41
76195;BME280;64964;48.694;21.206;2023-02-11T04:43:40;99569.50;;;-5.35;65.12
76195;BME280;64964;48.694;21.206;2023-02-11T04:46:05;99578.09;;;-5.36;65.17
76195;BME280;64964;48.694;21.206;2023-02-11T04:48:30;99571.31;;;-5.39;65.10
76195;BME280;64964;48.694;21.206;2023-02-11T04:50:56;99565.31;;;-5.41;65.30
76195;BME280;64964;48.694;21.206;2023-02-11T04:53:21;99549.06;;;-5.44;65.78
76195;BME280;64964;48.694;21.206;2023-02-11T04:55:50;99550.09;;;-5.53;65.89
76195;BME280;64964;48.694;21.206;2023-02-11T04:58:16;99560.47;;;-5.56;65.74
76195;BME280;64964;48.694;21.206;2023-02-11T05:00:42;99554.50;;;-5.58;65.86
76195;BME280;64964;48.694;21.206;2023-02-11T05:03:07;99553.69;;;-5.60;66.76
76195;BME280;64964;48.694;21.206;2023-02-11T05:05:33;99562.28;;;-5.61;66.30
76195;BME280;64964;48.694;21.206;2023-02-11T05:07:58;99574.28;;;-5.60;64.91
76195;BME280;64964;48.694;21.206;2023-02-11T05:10:23;99575.22;;;-5.63;65.91
76195;BME280;64964;48.694;21.206;2023-02-11T05:12:49;99574.38;;;-5.63;65.03
76195;BME280;64964;48.694;21.206;2023-02-11T05:15:14;99582.16;;;-5.66;64.97
76195;BME280;64964;48.694;21.206;2023-02-11T05:17:40;99574.56;;;-5.74;65.88
76195;BME280;64964;48.694;21.206;2023-02-11T05:20:05;99578.03;;;-5.75;65.21
76195;BME280;64964;48.694;21.206;2023-02-11T05:22:31;99580.69;;;-5.81;66.64
76195;BME280;64964;48.694;21.206;2023-02-11T05:24:56;99566.16;;;-5.84;66.38
76195;BME280;64964;48.694;21.206;2023-02-11T05:27:22;99549.88;;;-5.86;65.55
76195;BME280;64964;48.694;21.206;2023-02-11T05:29:47;99550.72;;;-5.85;66.28
76195;BME280;64964;48.694;21.206;2023-02-11T05:32:13;99540.50;;;-5.88;67.71
76195;BME280;64964;48.694;21.206;2023-02-11T05:34:38;99546.47;;;-5.85;66.81
76195;BME280;64964;48.694;21.206;2023-02-11T05:37:03;99537.81;;;-5.82;66.98
76195;BME280;64964;48.694;21.206;2023-02-11T05:39:29;99530.03;;;-5.79;66.13
76195;BME280;64964;48.694;21.206;2023-02-11T05:41:54;99529.13;;;-5.77;67.29
76195;BME280;64964;48.694;21.206;2023-02-11T05:44:20;99518.72;;;-5.72;67.16
76195;BME280;64964;48.694;21.206;2023-02-11T05:46:45;99512.63;;;-5.68;67.96
76195;BME280;64964;48.694;21.206;2023-02-11T05:49:10;99504.72;;;-5.59;67.06
76195;BME280;64964;48.694;21.206;2023-02-11T05:51:36;99495.19;;;-5.55;68.16
76195;BME280;64964;48.694;21.206;2023-02-11T05:54:01;99486.63;;;-5.56;67.27
76195;BME280;64964;48.694;21.206;2023-02-11T05:56:27;99487.47;;;-5.55;66.94
76195;BME280;64964;48.694;21.206;2023-02-11T05:58:53;99490.91;;;-5.55;67.86
76195;BME280;64964;48.694;21.206;2023-02-11T06:01:18;99500.19;;;-5.47;66.72
76195;BME280;64964;48.694;21.206;2023-02-11T06:03:43;99480.44;;;-5.47;67.24
76195;BME280;64964;48.694;21.206;2023-02-11T06:06:12;99468.50;;;-5.51;70.46
76195;BME280;64964;48.694;21.206;2023-02-11T06:08:38;99468.50;;;-5.51;68.61
76195;BME280;64964;48.694;21.206;2023-02-11T06:11:03;99465.81;;;-5.48;68.52
76195;BME280;64964;48.694;21.206;2023-02-11T06:13:28;99492.41;;;-5.46;69.21
76195;BME280;64964;48.694;21.206;2023-02-11T06:15:55;99487.91;;;-5.36;67.15
76195;BME280;64964;48.694;21.206;2023-02-11T06:18:21;99482.16;;;-5.47;71.58
76195;BME280;64964;48.694;21.206;2023-02-11T06:20:46;99498.56;;;-5.53;73.14
76195;BME280;64964;48.694;21.206;2023-02-11T06:23:12;99502.09;;;-5.57;73.07
76195;BME280;64964;48.694;21.206;2023-02-11T06:25:37;99499.56;;;-5.60;72.03
76195;BME280;64964;48.694;21.206;2023-02-11T06:28:02;99501.13;;;-5.52;69.77
76195;BME280;64964;48.694;21.206;2023-02-11T06:30:28;99487.22;;;-5.44;68.79
76195;BME280;64964;48.694;21.206;2023-02-11T06:32:53;99481.97;;;-5.38;68.75
76195;BME280;64964;48.694;21.206;2023-02-11T06:35:19;99478.66;;;-5.45;71.53
76195;BME280;64964;48.694;21.206;2023-02-11T06:37:44;99472.66;;;-5.45;70.94
76195;BME280;64964;48.694;21.206;2023-02-11T06:40:10;99477.66;;;-5.39;70.21
76195;BME280;64964;48.694;21.206;2023-02-11T06:42:36;99475.75;;;-5.31;69.73
76195;BME280;64964;48.694;21.206;2023-02-11T06:45:06;99464.31;;;-5.19;69.52
76195;BME280;64964;48.694;21.206;2023-02-11T06:47:33;99471.81;;;-5.09;70.23
76195;BME280;64964;48.694;21.206;2023-02-11T06:49:59;99464.66;;;-4.97;69.45
76195;BME280;64964;48.694;21.206;2023-02-11T06:52:24;99454.94;;;-4.85;69.07
76195;BME280;64964;48.694;21.206;2023-02-11T06:54:49;99450.38;;;-4.75;68.38
76195;BME280;64964;48.694;21.206;2023-02-11T06:57:15;99444.94;;;-4.64;68.04
76195;BME280;64964;48.694;21.206;2023-02-11T06:59:40;99439.50;;;-4.54;68.52
76195;BME280;64964;48.694;21.206;2023-02-11T07:02:08;99445.38;;;-4.47;68.24
76195;BME280;64964;48.694;21.206;2023-02-11T07:04:34;99446.81;;;-4.37;67.55
76195;BME280;64964;48.694;21.206;2023-02-11T07:06:59;99450.94;;;-4.31;67.75
76195;BME280;64964;48.694;21.206;2023-02-11T07:09:25;99457.72;;;-4.26;68.33
76195;BME280;64964;48.694;21.206;2023-02-11T07:11:50;99456.72;;;-4.21;67.56
76195;BME280;64964;48.694;21.206;2023-02-11T07:14:15;99458.25;;;-4.14;67.27
76195;BME280;64964;48.694;21.206;2023-02-11T07:16:41;99467.56;;;-4.09;68.53
76195;BME280;64964;48.694;21.206;2023-02-11T07:19:06;99475.84;;;-3.96;67.71
76195;BME280;64964;48.694;21.206;2023-02-11T07:21:32;99490.16;;;-3.84;66.99
76195;BME280;64964;48.694;21.206;2023-02-11T07:23:57;99489.00;;;-3.74;67.31
76195;BME280;64964;48.694;21.206;2023-02-11T07:26:23;99477.63;;;-3.68;67.71
76195;BME280;64964;48.694;21.206;2023-02-11T07:28:50;99473.97;;;-3.61;67.43
76195;BME280;64964;48.694;21.206;2023-02-11T07:31:22;99471.94;;;-3.52;67.20
76195;BME280;64964;48.694;21.206;2023-02-11T07:33:48;99480.31;;;-3.42;66.57
76195;BME280;64964;48.694;21.206;2023-02-11T07:36:14;99488.00;;;-3.40;66.38
76195;BME280;64964;48.694;21.206;2023-02-11T07:38:40;99477.66;;;-3.40;66.48
76195;BME280;64964;48.694;21.206;2023-02-11T07:41:09;99469.97;;;-3.42;66.64
76195;BME280;64964;48.694;21.206;2023-02-11T07:43:35;99472.00;;;-3.53;68.30
76195;BME280;64964;48.694;21.206;2023-02-11T07:46:05;99472.78;;;-3.49;67.96
76195;BME280;64964;48.694;21.206;2023-02-11T07:48:31;99466.13;;;-3.58;69.25
76195;BME280;64964;48.694;21.206;2023-02-11T07:51:29;99467.91;;;-3.60;69.27
76195;BME280;64964;48.694;21.206;2023-02-11T07:53:56;99483.47;;;-3.62;70.08
76195;BME280;64964;48.694;21.206;2023-02-11T07:56:22;99482.44;;;-3.56;67.90
76195;BME280;64964;48.694;21.206;2023-02-11T07:58:48;99481.66;;;-3.58;68.39
76195;BME280;64964;48.694;21.206;2023-02-11T08:01:25;99465.50;;;-3.66;69.79
76195;BME280;64964;48.694;21.206;2023-02-11T08:03:54;99474.19;;;-3.69;69.20
76195;BME280;64964;48.694;21.206;2023-02-11T08:06:21;99480.19;;;-3.67;69.58
76195;BME280;64964;48.694;21.206;2023-02-11T08:08:47;99475.72;;;-3.62;69.03
76195;BME280;64964;48.694;21.206;2023-02-11T08:11:18;99481.66;;;-3.60;69.22
76195;BME280;64964;48.694;21.206;2023-02-11T08:13:44;99475.56;;;-3.57;69.92
76195;BME280;64964;48.694;21.206;2023-02-11T08:18:47;99468.50;;;-3.51;68.76
76195;BME280;64964;48.694;21.206;2023-02-11T08:21:13;99468.63;;;-3.55;70.27
76195;BME280;64964;48.694;21.206;2023-02-11T08:23:39;99448.00;;;-3.57;70.33
76195;BME280;64964;48.694;21.206;2023-02-11T08:26:11;99446.91;;;-3.49;69.22
76195;BME280;64964;48.694;21.206;2023-02-11T08:28:38;99449.38;;;-3.45;69.48
76195;BME280;64964;48.694;21.206;2023-02-11T08:31:09;99457.91;;;-3.43;69.21
76195;BME280;64964;48.694;21.206;2023-02-11T08:33:36;99450.81;;;-3.36;69.35
76195;BME280;64964;48.694;21.206;2023-02-11T08:36:09;99458.50;;;-3.33;68.96
76195;BME280;64964;48.694;21.206;2023-02-11T08:38:35;99455.09;;;-3.35;69.56
76195;BME280;64964;48.694;21.206;2023-02-11T08:41:00;99462.81;;;-3.34;70.13
76195;BME280;64964;48.694;21.206;2023-02-11T08:43:26;99457.59;;;-3.32;69.86
76195;BME280;64964;48.694;21.206;2023-02-11T08:45:51;99446.47;;;-3.34;69.75
76195;BME280;64964;48.694;21.206;2023-02-11T08:48:16;99438.94;;;-3.42;70.07
76195;BME280;64964;48.694;21.206;2023-02-11T08:50:42;99424.28;;;-3.43;70.22
76195;BME280;64964;48.694;21.206;2023-02-11T08:53:07;99431.03;;;-3.37;69.69
76195;BME280;64964;48.694;21.206;2023-02-11T08:55:33;99428.38;;;-3.34;69.64
76195;BME280;64964;48.694;21.206;2023-02-11T08:57:58;99423.22;;;-3.36;69.64
76195;BME280;64964;48.694;21.206;2023-02-11T09:00:24;99421.34;;;-3.31;69.39
76195;BME280;64964;48.694;21.206;2023-02-11T09:02:51;99433.34;;;-3.28;69.69
76195;BME280;64964;48.694;21.206;2023-02-11T09:05:16;99447.91;;;-3.26;70.20
76195;BME280;64964;48.694;21.206;2023-02-11T09:07:41;99444.97;;;-3.13;69.14
76195;BME280;64964;48.694;21.206;2023-02-11T09:10:07;99432.66;;;-3.07;69.14
76195;BME280;64964;48.694;21.206;2023-02-11T09:12:33;99442.44;;;-2.88;68.56
76195;BME280;64964;48.694;21.206;2023-02-11T09:14:58;99441.91;;;-2.73;67.94
76195;BME280;64964;48.694;21.206;2023-02-11T09:17:23;99433.94;;;-2.67;67.76
76195;BME280;64964;48.694;21.206;2023-02-11T09:19:49;99427.34;;;-2.51;67.09
76195;BME280;64964;48.694;21.206;2023-02-11T09:22:14;99424.91;;;-2.30;67.12
76195;BME280;64964;48.694;21.206;2023-02-11T09:24:40;99421.00;;;-2.17;66.49
76195;BME280;64964;48.694;21.206;2023-02-11T09:27:05;99429.00;;;-1.99;66.18
76195;BME280;64964;48.694;21.206;2023-02-11T09:29:30;99428.75;;;-1.93;66.04
76195;BME280;64964;48.694;21.206;2023-02-11T09:31:56;99421.94;;;-1.72;65.49
76195;BME280;64964;48.694;21.206;2023-02-11T09:34:21;99419.88;;;-1.41;65.36
76195;BME280;64964;48.694;21.206;2023-02-11T09:36:47;99401.34;;;-0.88;64.10
76195;BME280;64964;48.694;21.206;2023-02-11T09:39:15;99389.25;;;-0.48;62.87
76195;BME280;64964;48.694;21.206;2023-02-11T09:44:27;99375.44;;;0.29;59.78
76195;BME280;64964;48.694;21.206;2023-02-11T09:46:59;99377.94;;;0.68;59.82
76195;BME280;64964;48.694;21.206;2023-02-11T09:49:46;99370.84;;;1.06;57.64
76195;BME280;64964;48.694;21.206;2023-02-11T09:57:39;99384.66;;;1.26;56.26
76195;BME280;64964;48.694;21.206;2023-02-11T10:00:36;99386.25;;;1.28;56.12
76195;BME280;64964;48.694;21.206;2023-02-11T10:20:14;99371.84;;;4.30;50.02
76195;BME280;64964;48.694;21.206;2023-02-11T10:22:49;99354.50;;;4.56;49.41
76195;BME280;64964;48.694;21.206;2023-02-11T10:25:22;99359.72;;;4.83;48.80
76195;BME280;64964;48.694;21.206;2023-02-11T10:27:49;99349.16;;;4.57;47.50
76195;BME280;64964;48.694;21.206;2023-02-11T10:35:37;99348.16;;;2.87;50.67
76195;BME280;64964;48.694;21.206;2023-02-11T10:38:02;99342.19;;;2.39;51.59
76195;BME280;64964;48.694;21.206;2023-02-11T10:40:29;99352.44;;;2.26;52.34
76195;BME280;64964;48.694;21.206;2023-02-11T10:43:02;99346.56;;;2.22;52.70
76195;BME280;64964;48.694;21.206;2023-02-11T10:45:48;99347.72;;;2.33;52.41
76195;BME280;64964;48.694;21.206;2023-02-11T10:53:41;99344.00;;;3.29;50.96
76195;BME280;64964;48.694;21.206;2023-02-11T10:56:10;99338.41;;;3.49;49.66
76195;BME280;64964;48.694;21.206;2023-02-11T10:58:43;99334.69;;;3.53;49.35
76195;BME280;64964;48.694;21.206;2023-02-11T11:01:10;99332.41;;;3.18;49.53
76195;BME280;64964;48.694;21.206;2023-02-11T11:03:38;99327.69;;;2.79;50.11
76195;BME280;64964;48.694;21.206;2023-02-11T11:06:08;99313.94;;;2.61;51.15
76195;BME280;64964;48.694;21.206;2023-02-11T11:08:48;99304.28;;;2.47;51.42
76195;BME280;64964;48.694;21.206;2023-02-11T11:11:19;99302.06;;;2.56;51.88
76195;BME280;64964;48.694;21.206;2023-02-11T11:16:18;99297.97;;;2.20;51.72
76195;BME280;64964;48.694;21.206;2023-02-11T11:18:46;99307.50;;;2.05;52.28
76195;BME280;64964;48.694;21.206;2023-02-11T11:23:46;99282.34;;;1.88;52.63
76195;BME280;64964;48.694;21.206;2023-02-11T11:26:14;99293.91;;;1.83;52.59
76195;BME280;64964;48.694;21.206;2023-02-11T11:29:00;99286.16;;;1.65;53.13
76195;BME280;64964;48.694;21.206;2023-02-11T11:31:33;99275.81;;;1.80;53.71
76195;BME280;64964;48.694;21.206;2023-02-11T11:34:17;99280.56;;;2.05;53.22
76195;BME280;64964;48.694;21.206;2023-02-11T11:36:43;99281.94;;;2.58;53.43
76195;BME280;64964;48.694;21.206;2023-02-11T11:39:30;99276.47;;;3.07;52.41
76195;BME280;64964;48.694;21.206;2023-02-11T11:42:02;99264.09;;;3.53;52.04
76195;BME280;64964;48.694;21.206;2023-02-11T11:47:18;99251.88;;;3.68;50.63
76195;BME280;64964;48.694;21.206;2023-02-11T11:49:52;99246.75;;;3.52;49.58
76195;BME280;64964;48.694;21.206;2023-02-11T11:57:37;99245.44;;;2.72;51.17
76195;BME280;64964;48.694;21.206;2023-02-11T12:00:04;99224.75;;;2.39;51.92
76195;BME280;64964;48.694;21.206;2023-02-11T12:02:46;99207.25;;;2.25;53.25
76195;BME280;64964;48.694;21.206;2023-02-11T12:05:24;99216.63;;;2.13;52.93
76195;BME280;64964;48.694;21.206;2023-02-11T12:16:56;99201.81;;;2.44;52.29
76195;BME280;64964;48.694;21.206;2023-02-11T12:19:46;99200.31;;;2.10;53.37
76195;BME280;64964;48.694;21.206;2023-02-11T12:22:32;99198.41;;;2.28;52.80
76195;BME280;64964;48.694;21.206;2023-02-11T12:25:23;99201.31;;;2.37;53.46
76195;BME280;64964;48.694;21.206;2023-02-11T12:33:37;99168.22;;;2.08;54.14
76195;BME280;64964;48.694;21.206;2023-02-11T12:36:26;99163.78;;;2.40;53.88
76195;BME280;64964;48.694;21.206;2023-02-11T12:52:30;99156.41;;;1.55;55.12
76195;BME280;64964;48.694;21.206;2023-02-11T12:55:21;99147.69;;;1.40;56.01
76195;BME280;64964;48.694;21.206;2023-02-11T12:57:49;99133.88;;;1.38;56.61
76195;BME280;64964;48.694;21.206;2023-02-11T13:03:04;99126.41;;;1.32;56.86
76195;BME280;64964;48.694;21.206;2023-02-11T13:08:31;99119.19;;;1.37;56.82
76195;BME280;64964;48.694;21.206;2023-02-11T13:11:10;99129.88;;;1.48;56.46
76195;BME280;64964;48.694;21.206;2023-02-11T13:14:11;99112.06;;;1.56;56.29
76195;BME280;64964;48.694;21.206;2023-02-11T13:16:44;99114.34;;;1.46;56.42
76195;BME280;64964;48.694;21.206;2023-02-11T13:19:27;99106.56;;;1.29;56.44
76195;BME280;64964;48.694;21.206;2023-02-11T13:24:55;99103.38;;;1.08;57.40
76195;BME280;64964;48.694;21.206;2023-02-11T13:31:03;99101.97;;;1.03;57.81
76195;BME280;64964;48.694;21.206;2023-02-11T13:33:05;99112.97;;;1.08;57.74
76195;BME280;64964;48.694;21.206;2023-02-11T13:35:43;99127.75;;;1.07;57.51
76195;BME280;64964;48.694;21.206;2023-02-11T13:38:24;99132.03;;;1.08;57.75
76195;BME280;64964;48.694;21.206;2023-02-11T13:43:28;99139.34;;;1.02;57.71
76195;BME280;64964;48.694;21.206;2023-02-11T13:46:20;99134.63;;;0.92;58.35
76195;BME280;64964;48.694;21.206;2023-02-11T13:48:46;99138.38;;;0.87;58.70
76195;BME280;64964;48.694;21.206;2023-02-11T13:51:16;99156.44;;;0.90;58.01
76195;BME280;64964;48.694;21.206;2023-02-11T13:53:52;99151.47;;;0.85;58.57
76195;BME280;64964;48.694;21.206;2023-02-11T13:56:39;99157.75;;;0.81;58.47
76195;BME280;64964;48.694;21.206;2023-02-11T14:02:20;99144.19;;;0.59;59.65
76195;BME280;64964;48.694;21.206;2023-02-11T14:13:28;99146.69;;;0.60;59.39
76195;BME280;64964;48.694;21.206;2023-02-11T14:16:14;99155.66;;;0.55;59.98
76195;BME280;64964;48.694;21.206;2023-02-11T14:21:18;99161.84;;;0.52;60.11
76195;BME280;64964;48.694;21.206;2023-02-11T14:23:44;99145.47;;;0.50;59.94
76195;BME280;64964;48.694;21.206;2023-02-11T14:31:41;99117.13;;;0.11;61.81
76195;BME280;64964;48.694;21.206;2023-02-11T14:37:40;99122.47;;;0.08;61.85
76195;BME280;64964;48.694;21.206;2023-02-11T14:42:45;99108.78;;;0.04;62.01
76195;BME280;64964;48.694;21.206;2023-02-11T14:45:17;99109.94;;;-0.02;62.45
76195;BME280;64964;48.694;21.206;2023-02-11T14:50:18;99087.06;;;-0.12;63.24
76195;BME280;64964;48.694;21.206;2023-02-11T14:52:47;99089.03;;;-0.17;63.20
76195;BME280;64964;48.694;21.206;2023-02-11T14:55:22;99086.63;;;-0.20;63.01
76195;BME280;64964;48.694;21.206;2023-02-11T14:58:11;99066.47;;;-0.34;64.22
76195;BME280;64964;48.694;21.206;2023-02-11T15:00:54;99078.56;;;-0.33;63.83
76195;BME280;64964;48.694;21.206;2023-02-11T15:06:22;99076.59;;;-0.28;63.49
76195;BME280;64964;48.694;21.206;2023-02-11T15:09:12;99064.81;;;-0.35;64.68
76195;BME280;64964;48.694;21.206;2023-02-11T15:11:40;99072.00;;;-0.40;64.32
76195;BME280;64964;48.694;21.206;2023-02-11T15:16:46;99081.69;;;-0.44;65.09
76195;BME280;64964;48.694;21.206;2023-02-11T15:19:35;99092.06;;;-0.44;64.79
76195;BME280;64964;48.694;21.206;2023-02-11T15:22:22;99074.63;;;-0.42;64.75
76195;BME280;64964;48.694;21.206;2023-02-11T15:25:01;99063.50;;;-0.44;64.92
76195;BME280;64964;48.694;21.206;2023-02-11T15:27:36;99063.28;;;-0.39;64.13
76195;BME280;64964;48.694;21.206;2023-02-11T15:30:21;99069.63;;;-0.45;65.06
76195;BME280;64964;48.694;21.206;2023-02-11T15:32:48;99074.72;;;-0.43;64.13
76195;BME280;64964;48.694;21.206;2023-02-11T15:35:22;99084.88;;;-0.39;63.54
76195;BME280;64964;48.694;21.206;2023-02-11T15:37:48;99052.66;;;-0.35;63.42
76195;BME280;64964;48.694;21.206;2023-02-11T15:40:25;99051.72;;;-0.34;63.52
76195;BME280;64964;48.694;21.206;2023-02-11T15:43:15;99045.19;;;-0.41;64.07
76195;BME280;64964;48.694;21.206;2023-02-11T15:45:42;99025.03;;;-0.55;64.93
76195;BME280;64964;48.694;21.206;2023-02-11T15:48:14;99042.47;;;-0.57;65.35
76195;BME280;64964;48.694;21.206;2023-02-11T15:50:42;99052.94;;;-0.58;64.80
76195;BME280;64964;48.694;21.206;2023-02-11T15:53:28;99046.44;;;-0.67;65.10